createdAt,value
2022-10-26T00:02:06.196Z,17.80
2022-10-26T00:04:35.116Z,17.80
2022-10-26T00:07:02.316Z,17.80
2022-10-26T00:09:29.561Z,17.80
2022-10-26T00:11:58.111Z,17.70
2022-10-26T00:14:28.498Z,17.70
2022-10-26T00:16:58.086Z,17.70
2022-10-26T00:19:25.718Z,17.70
2022-10-26T00:22:13.014Z,17.60
2022-10-26T00:24:40.287Z,17.60
2022-10-26T00:27:07.528Z,17.60
2022-10-26T00:29:34.955Z,17.60
2022-10-26T00:32:02.152Z,17.60
2022-10-26T00:34:29.373Z,17.60
2022-10-26T00:36:56.668Z,17.60
2022-10-26T00:39:24.117Z,17.70
2022-10-26T00:41:51.475Z,17.60
2022-10-26T00:45:01.688Z,17.60
2022-10-26T00:47:34.852Z,17.50
2022-10-26T00:50:18.792Z,17.50
2022-10-26T00:52:48.404Z,17.50
2022-10-26T00:55:21.381Z,17.50
2022-10-26T00:57:54.653Z,17.40
2022-10-26T01:00:22.032Z,17.40
2022-10-26T01:02:54.680Z,17.40
2022-10-26T01:05:22.345Z,17.30
2022-10-26T01:07:51.130Z,17.20
2022-10-26T01:10:18.815Z,17.20
2022-10-26T01:12:49.076Z,17.20
2022-10-26T01:15:16.467Z,17.20
2022-10-26T01:18:28.885Z,17.10
2022-10-26T01:21:38.683Z,17.00
2022-10-26T01:24:26.820Z,17.00
2022-10-26T01:27:06.886Z,17.00
2022-10-26T01:30:12.363Z,17.10
2022-10-26T01:32:54.699Z,16.90
2022-10-26T01:35:38.271Z,16.90
2022-10-26T01:38:14.970Z,16.90
2022-10-26T01:41:11.915Z,16.90
2022-10-26T01:43:42.048Z,16.90
2022-10-26T01:46:11.517Z,16.90
2022-10-26T01:48:40.775Z,16.90
2022-10-26T01:51:09.442Z,17.00
2022-10-26T01:53:41.219Z,17.00
2022-10-26T01:56:19.232Z,17.00
2022-10-26T01:59:00.203Z,17.00
2022-10-26T02:01:47.460Z,17.00
2022-10-26T02:04:41.744Z,17.00
2022-10-26T02:07:20.930Z,17.00
2022-10-26T02:10:17.215Z,16.90
2022-10-26T02:13:15.750Z,16.90
2022-10-26T02:15:48.854Z,17.00
2022-10-26T02:18:34.299Z,17.00
2022-10-26T02:21:08.014Z,16.90
2022-10-26T02:23:38.850Z,16.80
2022-10-26T02:26:09.437Z,16.70
2022-10-26T02:28:42.855Z,16.60
2022-10-26T02:31:12.588Z,16.50
2022-10-26T02:33:44.319Z,16.40
2022-10-26T02:36:14.617Z,16.40
2022-10-26T02:38:44.709Z,16.40
2022-10-26T02:41:17.177Z,16.40
2022-10-26T02:44:08.201Z,16.50
2022-10-26T02:46:37.425Z,16.50
2022-10-26T02:49:04.896Z,16.50
2022-10-26T02:51:45.938Z,16.50
2022-10-26T02:54:30.135Z,16.50
2022-10-26T02:57:07.650Z,16.50
2022-10-26T02:59:47.509Z,16.50
2022-10-26T03:02:17.949Z,16.40
2022-10-26T03:04:45.265Z,16.40
2022-10-26T03:07:12.585Z,16.40
2022-10-26T03:09:39.815Z,16.40
2022-10-26T03:12:10.139Z,16.40
2022-10-26T03:14:37.392Z,16.40
2022-10-26T03:17:04.735Z,16.40
2022-10-26T03:19:38.349Z,16.50
2022-10-26T03:22:05.655Z,16.50
2022-10-26T03:24:32.908Z,16.60
2022-10-26T03:27:02.227Z,16.60
2022-10-26T03:29:29.871Z,16.60
2022-10-26T03:31:57.334Z,16.60
2022-10-26T03:34:24.642Z,16.60
2022-10-26T03:36:51.892Z,16.60
2022-10-26T03:39:19.164Z,16.70
2022-10-26T03:41:47.911Z,16.60
2022-10-26T03:44:15.300Z,16.60
2022-10-26T03:46:42.592Z,16.60
2022-10-26T03:49:09.811Z,16.60
2022-10-26T03:51:39.499Z,16.60
2022-10-26T03:54:07.290Z,16.60
2022-10-26T03:56:36.542Z,16.70
2022-10-26T03:59:04.088Z,16.70
2022-10-26T04:01:31.382Z,16.70
2022-10-26T04:03:58.743Z,16.70
2022-10-26T04:06:26.044Z,16.70
2022-10-26T04:08:58.115Z,16.70
2022-10-26T04:11:25.440Z,16.60
2022-10-26T04:13:52.703Z,16.60
2022-10-26T04:16:20.038Z,16.50
2022-10-26T04:18:48.406Z,16.50
2022-10-26T04:21:15.680Z,16.60
2022-10-26T04:23:43.252Z,16.60
2022-10-26T04:26:10.473Z,16.50
2022-10-26T04:28:37.809Z,16.50
2022-10-26T04:31:05.241Z,16.50
2022-10-26T04:33:32.509Z,16.50
2022-10-26T04:36:03.715Z,16.50
2022-10-26T04:38:30.967Z,16.50
2022-10-26T04:40:58.280Z,16.50
2022-10-26T04:43:25.505Z,16.60
2022-10-26T04:45:58.868Z,16.60
2022-10-26T04:48:26.323Z,16.60
2022-10-26T04:50:55.735Z,16.60
2022-10-26T04:53:22.967Z,16.70
2022-10-26T04:55:50.272Z,16.70
2022-10-26T04:58:17.815Z,16.70
2022-10-26T05:00:45.067Z,16.70
2022-10-26T05:03:12.292Z,16.70
2022-10-26T05:05:42.128Z,16.70
2022-10-26T05:08:09.621Z,16.70
2022-10-26T05:10:37.118Z,16.70
2022-10-26T05:13:06.683Z,16.80
2022-10-26T05:15:34.071Z,16.70
2022-10-26T05:18:13.588Z,16.80
2022-10-26T05:20:50.176Z,16.80
2022-10-26T05:23:20.381Z,16.80
2022-10-26T05:25:48.892Z,16.80
2022-10-26T05:28:17.319Z,16.80
2022-10-26T05:30:45.836Z,16.90
2022-10-26T05:33:14.570Z,16.90
2022-10-26T05:35:41.920Z,16.90
2022-10-26T05:38:17.354Z,16.90
2022-10-26T05:40:52.294Z,16.90
2022-10-26T05:43:24.068Z,16.90
2022-10-26T05:45:51.635Z,16.80
2022-10-26T05:48:19.162Z,16.80
2022-10-26T05:50:46.675Z,16.80
2022-10-26T05:53:13.966Z,16.80
2022-10-26T05:55:41.731Z,16.80
2022-10-26T05:58:13.407Z,16.80
2022-10-26T06:01:07.823Z,16.80
2022-10-26T06:04:02.833Z,16.80
2022-10-26T06:06:37.657Z,16.80
2022-10-26T06:09:05.244Z,16.80
2022-10-26T06:11:32.781Z,16.80
2022-10-26T06:14:01.278Z,16.80
2022-10-26T06:16:52.731Z,16.80
2022-10-26T06:19:46.648Z,16.90
2022-10-26T06:22:28.720Z,16.90
2022-10-26T06:25:20.298Z,17.00
2022-10-26T06:28:05.450Z,17.10
2022-10-26T06:30:35.295Z,17.20
2022-10-26T06:33:06.179Z,17.40
2022-10-26T06:36:20.183Z,17.50
2022-10-26T06:38:49.162Z,17.50
2022-10-26T06:41:19.271Z,17.50
2022-10-26T06:44:20.826Z,17.60
2022-10-26T06:46:54.587Z,17.60
2022-10-26T06:49:30.022Z,17.70
2022-10-26T06:52:18.947Z,17.70
2022-10-26T06:54:54.554Z,17.70
2022-10-26T06:57:26.644Z,17.70
2022-10-26T07:00:06.080Z,17.70
2022-10-26T07:02:33.396Z,17.70
2022-10-26T07:05:00.786Z,17.70
2022-10-26T07:07:30.862Z,17.70
2022-10-26T07:10:01.909Z,17.80
2022-10-26T07:12:32.205Z,17.90
2022-10-26T07:15:00.759Z,17.90
2022-10-26T07:17:31.349Z,17.80
2022-10-26T07:20:01.386Z,17.90
2022-10-26T07:22:28.659Z,18.00
2022-10-26T07:25:02.052Z,18.20
2022-10-26T07:27:30.485Z,18.20
2022-10-26T07:30:18.388Z,18.30
2022-10-26T07:32:45.660Z,18.50
2022-10-26T07:35:12.964Z,18.70
2022-10-26T07:37:40.646Z,18.90
2022-10-26T07:40:08.518Z,19.10
2022-10-26T07:42:38.199Z,19.40
2022-10-26T07:45:05.883Z,19.60
2022-10-26T07:47:59.446Z,19.80
2022-10-26T07:50:26.750Z,20.10
2022-10-26T07:52:54.510Z,20.40
2022-10-26T07:55:21.783Z,20.50
2022-10-26T07:57:53.824Z,20.40
2022-10-26T08:00:22.425Z,20.20
2022-10-26T08:02:49.936Z,20.00
2022-10-26T08:05:19.612Z,20.00
2022-10-26T08:07:47.047Z,20.00
2022-10-26T08:10:19.847Z,19.90
2022-10-26T08:12:47.061Z,19.80
2022-10-26T08:15:14.291Z,19.80
2022-10-26T08:17:41.527Z,19.90
2022-10-26T08:20:09.353Z,19.90
2022-10-26T08:22:36.595Z,20.00
2022-10-26T08:25:03.984Z,20.20
2022-10-26T08:27:31.251Z,20.30
2022-10-26T08:29:58.585Z,20.40
2022-10-26T08:32:26.058Z,20.50
2022-10-26T08:34:53.453Z,20.40
2022-10-26T08:37:20.811Z,20.70
2022-10-26T08:39:50.533Z,20.90
2022-10-26T08:42:40.854Z,20.90
2022-10-26T08:45:24.710Z,20.80
2022-10-26T08:48:00.673Z,20.70
2022-10-26T08:50:31.626Z,20.60
2022-10-26T08:53:09.620Z,20.80
2022-10-26T08:55:44.582Z,21.00
2022-10-26T08:58:18.636Z,21.30
2022-10-26T09:00:50.464Z,21.40
2022-10-26T09:03:19.110Z,21.80
2022-10-26T09:06:11.018Z,22.10
2022-10-26T09:08:51.806Z,22.20
2022-10-26T09:11:40.701Z,22.30
2022-10-26T09:14:07.873Z,22.30
2022-10-26T09:16:45.952Z,22.40
2022-10-26T09:19:32.129Z,22.30
2022-10-26T09:22:11.173Z,22.20
2022-10-26T09:24:56.338Z,22.00
2022-10-26T09:27:33.870Z,22.10
2022-10-26T09:30:11.832Z,22.20
2022-10-26T09:32:47.023Z,22.20
2022-10-26T09:35:34.181Z,22.20
2022-10-26T09:38:14.484Z,22.40
2022-10-26T09:40:50.468Z,22.50
2022-10-26T09:43:24.673Z,22.60
2022-10-26T09:45:52.679Z,22.80
2022-10-26T09:48:49.969Z,22.80
2022-10-26T09:51:18.097Z,22.80
2022-10-26T09:53:48.571Z,22.70
2022-10-26T09:56:19.925Z,22.70
2022-10-26T09:58:59.408Z,22.70
2022-10-26T10:01:35.599Z,22.70
2022-10-26T10:04:12.989Z,22.80
2022-10-26T10:06:41.071Z,22.70
2022-10-26T10:09:15.769Z,22.60
2022-10-26T10:11:54.999Z,22.70
2022-10-26T10:14:36.162Z,22.70
2022-10-26T10:17:10.760Z,22.70
2022-10-26T10:19:39.087Z,22.80
2022-10-26T10:22:18.723Z,23.00
2022-10-26T10:25:00.573Z,23.30
2022-10-26T10:27:29.573Z,23.30
2022-10-26T10:30:02.992Z,23.20
2022-10-26T10:32:35.674Z,23.00
2022-10-26T10:35:24.329Z,22.90
2022-10-26T10:37:52.563Z,23.00
2022-10-26T10:40:30.701Z,23.00
2022-10-26T10:43:14.462Z,22.90
2022-10-26T10:45:48.387Z,22.80
2022-10-26T10:48:22.998Z,22.90
2022-10-26T10:51:10.936Z,22.90
2022-10-26T10:53:51.932Z,22.70
2022-10-26T10:56:38.499Z,22.70
2022-10-26T10:59:35.862Z,22.70
2022-10-26T11:02:08.953Z,22.80
2022-10-26T11:05:24.892Z,22.90
2022-10-26T11:08:15.798Z,22.90
2022-10-26T11:10:50.512Z,23.00
2022-10-26T11:13:29.558Z,23.10
2022-10-26T11:16:02.997Z,23.20
2022-10-26T11:18:43.704Z,23.10
2022-10-26T11:21:31.543Z,23.10
2022-10-26T11:24:27.978Z,23.30
2022-10-26T11:26:57.764Z,23.30
2022-10-26T11:29:59.702Z,23.40
2022-10-26T11:32:40.998Z,23.50
2022-10-26T11:35:31.318Z,23.60
2022-10-26T11:38:20.742Z,23.70
2022-10-26T11:41:18.724Z,23.60
2022-10-26T11:43:48.675Z,23.50
2022-10-26T11:46:19.013Z,23.50
2022-10-26T11:49:15.914Z,23.70
2022-10-26T11:51:56.116Z,23.80
2022-10-26T11:54:47.549Z,23.60
2022-10-26T11:57:16.657Z,23.70
2022-10-26T12:00:04.174Z,23.60
2022-10-26T12:05:16.165Z,23.60
2022-10-26T12:07:57.738Z,23.70
2022-10-26T12:10:32.354Z,23.70
2022-10-26T12:13:04.129Z,23.70
2022-10-26T12:16:03.158Z,23.70
2022-10-26T12:19:01.298Z,23.60
2022-10-26T12:21:33.263Z,23.60
2022-10-26T12:24:02.339Z,23.50
2022-10-26T12:26:29.577Z,23.50
2022-10-26T12:29:02.938Z,23.60
2022-10-26T12:31:35.014Z,23.50
2022-10-26T12:34:11.119Z,23.40
2022-10-26T12:36:56.575Z,23.50
2022-10-26T12:39:42.735Z,23.60
2022-10-26T12:42:09.911Z,23.60
2022-10-26T12:44:39.568Z,23.60
2022-10-26T12:47:08.013Z,23.60
2022-10-26T12:50:06.123Z,23.50
2022-10-26T12:52:45.732Z,23.50
2022-10-26T12:55:13.010Z,23.60
2022-10-26T12:58:17.520Z,23.60
2022-10-26T13:01:00.502Z,23.60
2022-10-26T13:03:55.935Z,23.50
2022-10-26T13:06:37.414Z,23.70
2022-10-26T13:09:19.022Z,23.70
2022-10-26T13:11:52.048Z,23.60
2022-10-26T13:14:26.277Z,23.60
2022-10-26T13:16:54.190Z,23.70
2022-10-26T13:19:27.499Z,23.70
2022-10-26T13:21:59.171Z,23.70
2022-10-26T13:24:30.459Z,23.70
2022-10-26T13:27:07.191Z,23.70
2022-10-26T13:30:03.638Z,23.70
2022-10-26T13:32:37.351Z,23.80
2022-10-26T13:35:06.948Z,23.70
2022-10-26T13:37:38.457Z,23.60
2022-10-26T13:40:07.300Z,23.60
2022-10-26T13:42:45.886Z,23.60
2022-10-26T13:45:18.098Z,23.70
2022-10-26T13:47:57.687Z,23.70
2022-10-26T13:50:30.071Z,23.70
2022-10-26T13:53:18.988Z,23.70
2022-10-26T13:55:51.134Z,23.70
2022-10-26T13:58:42.932Z,23.70
2022-10-26T14:01:10.311Z,23.60
2022-10-26T14:03:38.669Z,23.60
2022-10-26T14:06:17.071Z,23.60
2022-10-26T14:08:47.540Z,23.50
2022-10-26T14:11:19.414Z,23.40
2022-10-26T14:13:49.536Z,23.40
2022-10-26T14:16:22.572Z,23.50
2022-10-26T14:18:50.027Z,23.40
2022-10-26T14:21:21.435Z,23.40
2022-10-26T14:23:57.549Z,23.40
2022-10-26T14:26:30.723Z,23.40
2022-10-26T14:29:00.279Z,23.40
2022-10-26T14:31:27.697Z,23.30
2022-10-26T14:33:56.669Z,23.40
2022-10-26T14:36:35.923Z,23.40
2022-10-26T14:39:13.713Z,23.40
2022-10-26T14:41:41.298Z,23.40
2022-10-26T14:44:19.490Z,23.40
2022-10-26T14:46:47.219Z,23.40
2022-10-26T14:49:23.764Z,23.40
2022-10-26T14:51:58.705Z,23.40
2022-10-26T14:54:28.568Z,23.40
2022-10-26T14:56:56.850Z,23.30
2022-10-26T14:59:24.056Z,23.30
2022-10-26T15:01:58.497Z,23.20
2022-10-26T15:04:36.709Z,23.20
2022-10-26T15:07:13.256Z,23.30
2022-10-26T15:09:46.181Z,23.20
2022-10-26T15:12:35.862Z,23.20
2022-10-26T15:17:59.460Z,23.00
2022-10-26T15:20:28.824Z,23.00
2022-10-26T15:23:01.323Z,23.00
2022-10-26T15:25:31.370Z,22.90
2022-10-26T15:28:21.248Z,22.90
2022-10-26T15:31:11.943Z,22.80
2022-10-26T15:33:52.645Z,22.90
2022-10-26T15:36:23.638Z,22.80
2022-10-26T15:38:51.800Z,22.80
2022-10-26T15:41:40.045Z,22.70
2022-10-26T15:44:16.117Z,22.60
2022-10-26T15:46:45.968Z,22.50
2022-10-26T15:49:21.187Z,22.40
2022-10-26T15:51:49.243Z,22.30
2022-10-26T15:54:16.698Z,22.30
2022-10-26T15:56:44.897Z,22.20
2022-10-26T15:59:17.994Z,22.20
2022-10-26T16:01:45.773Z,22.20
2022-10-26T16:04:13.312Z,22.10
2022-10-26T16:06:41.845Z,22.10
2022-10-26T16:09:18.513Z,22.00
2022-10-26T16:11:45.908Z,21.90
2022-10-26T16:14:13.283Z,21.90
2022-10-26T16:16:41.262Z,21.80
2022-10-26T16:19:30.801Z,21.70
2022-10-26T16:21:57.747Z,21.70
2022-10-26T16:24:26.028Z,21.70
2022-10-26T16:26:59.193Z,21.70
2022-10-26T16:29:26.560Z,21.60
2022-10-26T16:31:56.479Z,21.50
2022-10-26T16:34:23.711Z,21.40
2022-10-26T16:36:51.145Z,21.40
2022-10-26T16:39:18.364Z,21.20
2022-10-26T16:41:45.628Z,21.10
2022-10-26T16:44:13.572Z,21.00
2022-10-26T16:46:40.811Z,20.90
2022-10-26T16:49:08.205Z,20.80
2022-10-26T16:51:35.706Z,20.70
2022-10-26T16:54:03.003Z,20.70
2022-10-26T16:56:30.693Z,20.60
2022-10-26T16:58:58.305Z,20.60
2022-10-26T17:01:25.869Z,20.60
2022-10-26T17:03:53.578Z,20.50
2022-10-26T17:06:21.063Z,20.40
2022-10-26T17:08:48.615Z,20.30
2022-10-26T17:11:18.200Z,20.30
2022-10-26T17:13:46.172Z,20.30
2022-10-26T17:16:21.579Z,20.20
2022-10-26T17:18:49.804Z,20.20
2022-10-26T17:21:19.940Z,20.20
2022-10-26T17:23:47.215Z,20.10
2022-10-26T17:26:15.111Z,20.00
2022-10-26T17:28:43.059Z,20.00
2022-10-26T17:31:15.328Z,20.00
2022-10-26T17:33:44.925Z,20.00
2022-10-26T17:36:13.714Z,19.90
2022-10-26T17:38:42.542Z,19.80
2022-10-26T17:41:12.560Z,19.70
2022-10-26T17:43:41.105Z,19.80
2022-10-26T17:46:11.837Z,19.80
2022-10-26T17:48:39.462Z,19.80
2022-10-26T17:51:10.137Z,19.70
2022-10-26T17:53:37.399Z,19.80
2022-10-26T17:56:14.831Z,19.80
2022-10-26T17:58:42.031Z,19.70
2022-10-26T18:01:13.671Z,19.60
2022-10-26T18:03:41.897Z,19.70
2022-10-26T18:06:09.477Z,19.70
2022-10-26T18:08:40.891Z,19.60
2022-10-26T18:11:13.252Z,19.60
2022-10-26T18:13:41.558Z,19.50
2022-10-26T18:16:11.478Z,19.40
2022-10-26T18:18:49.006Z,19.30
2022-10-26T18:21:21.572Z,19.30
2022-10-26T18:24:40.532Z,19.30
2022-10-26T18:26:50.508Z,19.30
2022-10-26T18:29:18.069Z,19.40
2022-10-26T18:31:46.058Z,19.40
2022-10-26T18:34:13.421Z,19.30
2022-10-26T18:36:40.884Z,19.40
2022-10-26T18:39:10.639Z,19.30
2022-10-26T18:41:38.052Z,19.30
2022-10-26T18:44:05.338Z,19.30
2022-10-26T18:46:40.944Z,19.30
2022-10-26T18:49:09.666Z,19.30
2022-10-26T18:51:36.978Z,19.20
2022-10-26T18:54:04.711Z,19.20
2022-10-26T18:56:32.646Z,19.20
2022-10-26T18:59:00.777Z,19.20
2022-10-26T19:01:34.080Z,19.20
2022-10-26T19:04:10.453Z,19.20
2022-10-26T19:06:39.070Z,19.20
2022-10-26T19:09:07.801Z,19.10
2022-10-26T19:11:35.712Z,19.10
2022-10-26T19:14:03.502Z,19.10
2022-10-26T19:16:45.446Z,19.00
2022-10-26T19:19:15.161Z,19.10
2022-10-26T19:21:47.406Z,19.00
2022-10-26T19:24:19.894Z,19.00
2022-10-26T19:26:48.776Z,19.00
2022-10-26T19:29:20.535Z,19.00
2022-10-26T19:31:54.852Z,18.90
2022-10-26T19:34:22.254Z,18.90
2022-10-26T19:36:49.587Z,18.90
2022-10-26T19:39:17.849Z,18.90
2022-10-26T19:41:46.569Z,18.90
2022-10-26T19:44:14.913Z,18.80
2022-10-26T19:46:43.914Z,18.80
2022-10-26T19:49:13.043Z,18.80
2022-10-26T19:51:40.620Z,18.70
2022-10-26T19:54:08.077Z,18.70
2022-10-26T19:56:37.203Z,18.70
2022-10-26T19:59:04.906Z,18.80
2022-10-26T20:01:32.441Z,18.70
2022-10-26T20:04:02.342Z,18.70
2022-10-26T20:06:30.894Z,18.70
2022-10-26T20:08:58.734Z,18.60
2022-10-26T20:11:26.044Z,18.60
2022-10-26T20:13:55.362Z,18.60
2022-10-26T20:16:22.732Z,18.60
2022-10-26T20:18:50.103Z,18.60
2022-10-26T20:21:17.869Z,18.50
2022-10-26T20:23:45.693Z,18.50
2022-10-26T20:26:19.382Z,18.50
2022-10-26T20:28:49.234Z,18.50
2022-10-26T20:31:16.722Z,18.40
2022-10-26T20:33:44.094Z,18.40
2022-10-26T20:36:13.982Z,18.40
2022-10-26T20:38:41.552Z,18.40
2022-10-26T20:41:12.177Z,18.30
2022-10-26T20:43:40.750Z,18.30
2022-10-26T20:46:28.715Z,18.20
2022-10-26T20:48:56.383Z,18.10
2022-10-26T20:52:20.703Z,18.10
2022-10-26T20:55:03.266Z,18.10
2022-10-26T20:57:32.866Z,18.10
2022-10-26T21:00:05.438Z,18.10
2022-10-26T21:02:32.807Z,18.10
2022-10-26T21:05:00.035Z,18.00
2022-10-26T21:07:27.683Z,18.10
2022-10-26T21:09:55.155Z,18.00
2022-10-26T21:12:22.822Z,18.00
2022-10-26T21:14:50.146Z,18.00
2022-10-26T21:17:17.515Z,18.00
2022-10-26T21:19:44.778Z,18.00
2022-10-26T21:22:12.070Z,18.00
2022-10-26T21:24:39.480Z,18.00
2022-10-26T21:27:06.857Z,17.90
2022-10-26T21:29:34.480Z,17.90
2022-10-26T21:32:02.156Z,17.90
2022-10-26T21:34:30.098Z,17.90
2022-10-26T21:37:06.389Z,17.90
2022-10-26T21:42:53.465Z,17.80
2022-10-26T21:45:22.073Z,17.70
2022-10-26T21:47:53.655Z,17.70
2022-10-26T21:50:21.207Z,17.70
2022-10-26T21:52:53.528Z,17.60
2022-10-26T21:55:21.293Z,17.60
2022-10-26T21:57:48.645Z,17.60
2022-10-26T22:00:16.701Z,17.50
2022-10-26T22:02:43.958Z,17.50
2022-10-26T22:05:11.484Z,17.50
2022-10-26T22:07:38.946Z,17.50
2022-10-26T22:10:10.953Z,17.50
2022-10-26T22:12:42.909Z,17.50
2022-10-26T22:15:10.715Z,17.40
2022-10-26T22:17:39.457Z,17.30
2022-10-26T22:20:10.911Z,17.30
2022-10-26T22:22:38.523Z,17.20
2022-10-26T22:25:07.048Z,17.10
2022-10-26T22:27:34.473Z,17.10
2022-10-26T22:30:02.025Z,17.00
2022-10-26T22:32:29.370Z,17.00
2022-10-26T22:35:10.979Z,16.90
2022-10-26T22:37:44.530Z,16.90
2022-10-26T22:40:12.129Z,16.90
2022-10-26T22:42:39.368Z,17.00
2022-10-26T22:45:07.336Z,17.00
2022-10-26T22:47:34.584Z,17.00
2022-10-26T22:50:01.855Z,17.00
2022-10-26T22:52:29.246Z,17.00
2022-10-26T22:54:56.531Z,17.00
2022-10-26T22:57:23.761Z,17.00
2022-10-26T22:59:51.082Z,17.00
2022-10-26T23:02:18.449Z,17.00
2022-10-26T23:07:17.867Z,16.90
2022-10-26T23:09:45.068Z,16.90
2022-10-26T23:12:12.313Z,16.90
2022-10-26T23:14:39.541Z,16.90
2022-10-26T23:17:07.031Z,16.90
2022-10-26T23:19:34.252Z,17.00
2022-10-26T23:22:01.440Z,17.00
2022-10-26T23:24:28.642Z,17.00
2022-10-26T23:26:55.928Z,17.00
2022-10-26T23:29:23.200Z,17.00
2022-10-26T23:31:50.379Z,17.00
2022-10-26T23:34:17.674Z,16.80
2022-10-26T23:36:44.992Z,16.80
2022-10-26T23:39:12.241Z,16.80
2022-10-26T23:41:39.485Z,16.80
2022-10-26T23:44:06.692Z,16.70
2022-10-26T23:46:34.044Z,16.70
2022-10-26T23:49:01.314Z,16.70
2022-10-26T23:51:28.529Z,16.60
2022-10-26T23:53:55.824Z,16.60
2022-10-26T23:56:23.036Z,16.50
2022-10-26T23:58:50.985Z,16.50
